createdAt,value
2023-02-03T00:00:47.223Z,5.47
2023-02-03T00:03:33.133Z,3.28
2023-02-03T00:06:19.257Z,5.15
2023-02-03T00:09:05.267Z,4.15
2023-02-03T00:11:51.084Z,4.28
2023-02-03T00:14:38.029Z,6.28
2023-02-03T00:17:27.506Z,6.47
2023-02-03T00:20:43.078Z,5.40
2023-02-03T00:23:31.989Z,3.38
2023-02-03T00:26:18.141Z,6.07
2023-02-03T00:29:04.144Z,4.80
2023-02-03T00:31:49.645Z,4.60
2023-02-03T00:34:35.354Z,4.63
2023-02-03T00:37:23.211Z,5.90
2023-02-03T00:40:09.113Z,5.95
2023-02-03T00:42:55.059Z,2.92
2023-02-03T00:45:40.606Z,2.58
2023-02-03T00:48:26.080Z,4.63
2023-02-03T00:51:11.365Z,3.20
2023-02-03T00:53:57.230Z,7.43
2023-02-03T00:56:42.940Z,3.67
2023-02-03T00:59:28.525Z,4.90
2023-02-03T01:02:13.973Z,4.28
2023-02-03T02:04:05.950Z,5.57
2023-02-03T02:06:52.078Z,4.60
2023-02-03T02:09:37.931Z,6.47
2023-02-03T02:12:23.960Z,5.43
2023-02-03T02:15:10.262Z,6.03
2023-02-03T02:18:28.149Z,8.25
2023-02-03T02:21:24.989Z,5.93
2023-02-03T02:24:36.818Z,6.90
2023-02-03T02:27:58.483Z,6.13
2023-02-03T02:31:23.062Z,6.05
2023-02-03T02:34:25.630Z,6.53
2023-02-03T02:37:45.419Z,5.38
2023-02-03T02:40:51.046Z,3.85
2023-02-03T02:43:40.119Z,4.88
2023-02-03T02:46:35.810Z,4.00
2023-02-03T02:49:46.046Z,5.18
2023-02-03T02:52:36.191Z,2.20
2023-02-03T02:55:30.675Z,5.63
2023-02-03T02:58:20.298Z,3.17
2023-02-03T03:01:09.158Z,6.20
2023-02-03T03:03:58.507Z,6.43
2023-02-03T03:06:54.042Z,5.82
2023-02-03T03:09:44.746Z,5.40
2023-02-03T03:12:43.158Z,7.07
2023-02-03T03:15:32.894Z,3.95
2023-02-03T03:18:48.991Z,2.83
2023-02-03T03:21:47.345Z,3.15
2023-02-03T03:24:40.900Z,2.25
2023-02-03T03:27:39.863Z,1.95
2023-02-03T03:30:39.566Z,1.73
2023-02-03T03:33:25.320Z,3.47
2023-02-03T03:36:31.435Z,1.83
2023-02-03T03:39:34.184Z,4.38
2023-02-03T03:42:36.270Z,2.20
2023-02-03T03:45:24.658Z,1.27
2023-02-03T03:48:16.467Z,2.05
2023-02-03T03:51:10.889Z,1.00
2023-02-03T03:53:59.978Z,1.33
2023-02-03T03:57:15.588Z,0.68
2023-02-03T04:00:02.950Z,1.88
2023-02-03T04:03:00.280Z,3.22
2023-02-03T04:05:46.192Z,1.77
2023-02-03T04:08:34.892Z,2.08
2023-02-03T04:11:38.941Z,2.38
2023-02-03T04:14:30.509Z,1.80
2023-02-03T04:17:16.136Z,0.90
2023-02-03T04:20:04.288Z,0.80
2023-02-03T04:22:50.388Z,5.68
2023-02-03T04:25:35.705Z,1.20
2023-02-03T04:28:21.400Z,1.65
2023-02-03T04:31:07.206Z,1.00
2023-02-03T04:33:52.989Z,1.63
2023-02-03T04:36:39.496Z,2.10
2023-02-03T04:39:25.306Z,1.42
2023-02-03T04:42:30.000Z,1.63
2023-02-03T04:45:16.032Z,1.30
2023-02-03T04:48:01.870Z,2.35
2023-02-03T04:50:49.311Z,2.05
2023-02-03T04:53:35.636Z,2.65
2023-02-03T04:56:21.270Z,1.02
2023-02-03T04:59:07.653Z,1.52
2023-02-03T05:01:53.089Z,2.17
2023-02-03T05:04:38.429Z,4.35
2023-02-03T05:07:23.939Z,3.92
2023-02-03T05:10:10.211Z,4.90
2023-02-03T05:12:55.821Z,1.77
2023-02-03T05:15:42.253Z,1.38
2023-02-03T05:18:28.002Z,2.20
2023-02-03T05:21:13.869Z,1.15
2023-02-03T05:24:00.350Z,2.78
2023-02-03T05:26:46.125Z,3.88
2023-02-03T05:29:31.666Z,3.75
2023-02-03T05:32:17.241Z,4.70
2023-02-03T05:35:03.102Z,4.70
2023-02-03T05:37:49.409Z,3.95
2023-02-03T05:40:53.584Z,6.60
2023-02-03T05:43:39.148Z,4.00
2023-02-03T05:46:25.136Z,4.15
2023-02-03T05:49:10.897Z,4.40
2023-02-03T05:51:57.013Z,3.88
2023-02-03T05:54:42.467Z,9.60
2023-02-03T05:57:27.861Z,5.35
2023-02-03T06:00:15.321Z,5.93
2023-02-03T06:03:04.611Z,8.90
2023-02-03T06:05:50.896Z,10.02
2023-02-03T06:08:42.063Z,13.27
2023-02-03T06:11:28.579Z,12.13
2023-02-03T06:14:14.535Z,8.65
2023-02-03T06:16:59.962Z,5.78
2023-02-03T06:19:45.948Z,17.13
2023-02-03T06:22:31.281Z,14.18
2023-02-03T06:25:17.053Z,10.75
2023-02-03T06:28:03.952Z,14.00
2023-02-03T06:33:43.481Z,8.63
2023-02-03T06:36:29.536Z,5.47
2023-02-03T06:39:15.156Z,7.05
2023-02-03T06:42:00.841Z,7.25
2023-02-03T06:44:46.367Z,4.97
2023-02-03T06:47:31.837Z,7.05
2023-02-03T06:50:17.467Z,5.65
2023-02-03T06:53:03.116Z,13.77
2023-02-03T06:55:48.454Z,5.78
2023-02-03T06:58:34.300Z,6.43
2023-02-03T07:01:19.820Z,6.70
2023-02-03T07:04:05.699Z,6.32
2023-02-03T07:06:51.171Z,4.82
2023-02-03T07:09:36.637Z,6.50
2023-02-03T07:12:22.139Z,5.82
2023-02-03T07:15:08.744Z,5.55
2023-02-03T07:17:55.039Z,5.70
2023-02-03T07:20:41.444Z,8.25
2023-02-03T07:23:26.760Z,7.88
2023-02-03T07:26:12.455Z,4.63
2023-02-03T07:29:00.195Z,6.70
2023-02-03T07:31:46.084Z,5.70
2023-02-03T07:34:31.731Z,6.05
2023-02-03T07:37:17.760Z,5.30
2023-02-03T07:40:06.804Z,10.10
2023-02-03T07:42:52.475Z,10.02
2023-02-03T07:45:38.234Z,6.07
2023-02-03T07:48:24.130Z,7.55
2023-02-03T07:51:09.554Z,7.43
2023-02-03T07:53:56.705Z,5.40
2023-02-03T07:56:43.319Z,6.85
2023-02-03T07:59:28.761Z,8.57
2023-02-03T08:02:14.175Z,7.53
2023-02-03T08:04:59.775Z,7.32
2023-02-03T08:07:45.872Z,7.35
2023-02-03T08:10:31.549Z,8.90
2023-02-03T08:13:16.930Z,10.95
2023-02-03T08:16:03.027Z,12.63
2023-02-03T08:18:48.361Z,11.38
2023-02-03T08:21:33.864Z,37.47
2023-02-03T08:24:19.376Z,7.68
2023-02-03T08:27:04.897Z,16.88
2023-02-03T08:29:50.689Z,7.03
2023-02-03T08:32:36.657Z,10.25
2023-02-03T08:35:22.574Z,5.55
2023-02-03T08:38:08.686Z,8.13
2023-02-03T08:40:54.537Z,9.07
2023-02-03T08:43:40.473Z,7.68
2023-02-03T08:46:26.020Z,7.35
2023-02-03T08:49:11.998Z,5.53
2023-02-03T08:51:58.447Z,8.05
2023-02-03T08:54:44.290Z,6.03
2023-02-03T08:57:35.933Z,5.55
2023-02-03T09:00:22.064Z,4.13
2023-02-03T09:03:07.584Z,6.10
2023-02-03T09:05:53.094Z,9.15
2023-02-03T09:08:39.141Z,5.50
2023-02-03T09:11:24.511Z,8.98
2023-02-03T09:14:10.664Z,11.45
2023-02-03T09:16:56.495Z,11.43
2023-02-03T09:19:43.108Z,7.30
2023-02-03T09:22:28.715Z,6.30
2023-02-03T09:25:16.418Z,7.68
2023-02-03T09:28:02.885Z,8.85
2023-02-03T09:30:48.652Z,5.72
2023-02-03T09:33:34.498Z,9.05
2023-02-03T09:36:20.459Z,9.93
2023-02-03T09:39:06.102Z,7.68
2023-02-03T09:42:04.863Z,9.70
2023-02-03T09:45:28.102Z,8.65
2023-02-03T09:48:23.181Z,6.70
2023-02-03T09:51:23.519Z,4.70
2023-02-03T09:54:46.471Z,6.45
2023-02-03T09:57:40.605Z,4.57
2023-02-03T10:00:31.864Z,4.70
2023-02-03T10:03:24.522Z,6.22
2023-02-03T10:06:16.646Z,5.32
2023-02-03T10:09:24.475Z,4.72
2023-02-03T10:12:18.985Z,4.93
2023-02-03T10:15:42.934Z,8.07
2023-02-03T10:18:55.473Z,5.25
2023-02-03T10:21:45.130Z,3.65
2023-02-03T10:24:44.982Z,3.70
2023-02-03T10:27:33.077Z,4.65
2023-02-03T10:30:24.825Z,4.78
2023-02-03T10:33:14.095Z,5.28
2023-02-03T10:36:22.845Z,4.50
2023-02-03T10:39:18.169Z,6.30
2023-02-03T10:42:05.950Z,3.50
2023-02-03T10:44:57.886Z,8.30
2023-02-03T10:47:49.705Z,7.50
2023-02-03T10:50:38.697Z,3.38
2023-02-03T10:53:34.349Z,4.10
2023-02-03T10:56:22.852Z,2.97
2023-02-03T10:59:29.597Z,3.50
2023-02-03T11:02:32.516Z,7.05
2023-02-03T11:05:21.907Z,5.25
2023-02-03T11:08:17.259Z,6.85
2023-02-03T11:11:32.483Z,3.83
2023-02-03T11:14:17.967Z,4.00
2023-02-03T11:17:16.927Z,4.88
2023-02-03T11:20:14.621Z,8.75
2023-02-03T11:23:00.802Z,11.02
2023-02-03T11:26:14.901Z,10.93
2023-02-03T11:29:02.982Z,6.75
2023-02-03T11:31:51.572Z,5.50
2023-02-03T11:34:39.592Z,4.75
2023-02-03T11:37:40.671Z,7.63
2023-02-03T11:40:26.642Z,8.50
2023-02-03T11:43:17.398Z,15.35
2023-02-03T11:46:10.058Z,6.55
2023-02-03T11:49:20.811Z,7.35
2023-02-03T11:52:16.631Z,3.28
2023-02-03T11:55:38.344Z,4.95
2023-02-03T11:58:45.963Z,8.35
2023-02-03T12:01:34.363Z,7.45
2023-02-03T12:04:41.456Z,4.25
2023-02-03T12:07:56.224Z,3.17
2023-02-03T12:11:02.691Z,4.60
2023-02-03T12:14:03.122Z,1.52
2023-02-03T12:17:04.074Z,0.95
2023-02-03T12:20:17.804Z,1.83
2023-02-03T12:23:13.607Z,2.08
2023-02-03T12:26:25.333Z,2.30
2023-02-03T12:29:44.035Z,1.45
2023-02-03T12:32:40.457Z,1.52
2023-02-03T12:35:52.644Z,4.40
2023-02-03T12:39:01.774Z,4.80
2023-02-03T12:42:03.282Z,4.75
2023-02-03T12:45:22.033Z,2.20
2023-02-03T12:48:15.645Z,5.55
2023-02-03T12:51:05.357Z,5.53
2023-02-03T12:53:58.353Z,2.90
2023-02-03T12:56:51.472Z,2.13
2023-02-03T12:59:40.763Z,3.65
2023-02-03T13:02:30.815Z,2.08
2023-02-03T13:05:48.395Z,1.98
2023-02-03T13:08:47.642Z,3.10
2023-02-03T13:11:52.995Z,2.10
2023-02-03T13:14:45.297Z,1.45
2023-02-03T13:17:42.677Z,1.25
2023-02-03T13:20:33.543Z,4.97
2023-02-03T13:23:19.753Z,3.53
2023-02-03T13:26:25.683Z,4.13
2023-02-03T13:29:24.522Z,2.33
2023-02-03T13:32:48.890Z,5.40
2023-02-03T13:36:13.210Z,2.55
2023-02-03T13:39:11.137Z,13.45
2023-02-03T13:42:08.436Z,3.28
2023-02-03T13:44:59.896Z,5.53
2023-02-03T13:47:49.469Z,4.73
2023-02-03T13:50:36.683Z,6.78
2023-02-03T13:53:26.293Z,2.47
2023-02-03T13:56:21.052Z,1.70
2023-02-03T13:59:15.659Z,3.35
2023-02-03T14:02:20.132Z,7.75
2023-02-03T14:05:29.514Z,3.72
2023-02-03T14:08:27.900Z,2.35
2023-02-03T14:11:36.387Z,3.47
2023-02-03T14:14:22.375Z,2.72
2023-02-03T14:17:44.871Z,3.55
2023-02-03T14:20:43.387Z,8.77
2023-02-03T14:23:40.095Z,7.75
2023-02-03T14:26:34.545Z,11.15
2023-02-03T14:29:30.154Z,9.57
2023-02-03T14:32:15.792Z,6.50
2023-02-03T14:35:01.336Z,7.63
2023-02-03T14:37:57.037Z,15.05
2023-02-03T14:40:56.986Z,5.75
2023-02-03T14:43:51.471Z,13.73
2023-02-03T14:47:05.476Z,45.40
2023-02-03T14:49:59.424Z,51.55
2023-02-03T14:53:11.942Z,65.45
2023-02-03T14:56:06.852Z,45.47
2023-02-03T14:59:02.869Z,45.63
2023-02-03T15:01:48.376Z,27.23
2023-02-03T15:04:33.878Z,12.52
2023-02-03T15:07:49.223Z,15.00
2023-02-03T15:10:43.831Z,13.52
2023-02-03T15:13:31.453Z,9.95
2023-02-03T15:16:21.251Z,6.60
2023-02-03T15:19:16.989Z,5.70
2023-02-03T15:22:02.948Z,7.65
2023-02-03T15:24:50.975Z,11.75
2023-02-03T15:27:36.759Z,12.68
2023-02-03T15:30:27.922Z,10.25
2023-02-03T15:33:21.221Z,11.77
2023-02-03T15:36:19.601Z,19.83
2023-02-03T15:39:48.221Z,46.55
2023-02-03T15:42:42.797Z,47.50
2023-02-03T15:45:32.686Z,37.90
2023-02-03T15:48:22.839Z,47.70
2023-02-03T15:51:28.453Z,48.17
2023-02-03T15:54:24.277Z,42.33
2023-02-03T15:57:26.486Z,25.60
2023-02-03T16:00:39.814Z,21.73
2023-02-03T16:03:45.351Z,14.20
2023-02-03T16:06:44.985Z,13.55
2023-02-03T16:09:57.308Z,11.23
2023-02-03T16:12:44.883Z,9.90
2023-02-03T16:15:30.848Z,7.88
2023-02-03T16:18:18.349Z,7.32
2023-02-03T16:21:05.472Z,9.57
2023-02-03T16:24:00.559Z,12.60
2023-02-03T16:26:51.665Z,11.10
2023-02-03T16:29:56.239Z,12.98
2023-02-03T16:33:00.753Z,9.35
2023-02-03T16:36:05.037Z,10.73
2023-02-03T16:39:09.647Z,10.95
2023-02-03T16:42:14.531Z,14.52
2023-02-03T16:45:18.586Z,9.93
2023-02-03T16:48:23.220Z,11.57
2023-02-03T16:51:16.761Z,13.65
2023-02-03T16:54:04.209Z,10.73
2023-02-03T16:56:52.097Z,18.35
2023-02-03T16:59:37.827Z,12.30
2023-02-03T17:02:23.501Z,8.55
2023-02-03T17:05:08.737Z,6.82
2023-02-03T17:07:54.383Z,8.38
2023-02-03T17:10:41.783Z,13.45
2023-02-03T17:13:27.511Z,7.53
2023-02-03T17:16:19.769Z,9.27
2023-02-03T17:19:05.839Z,7.10
2023-02-03T17:21:53.480Z,8.73
2023-02-03T17:24:39.522Z,7.75
2023-02-03T17:27:25.479Z,9.30
2023-02-03T17:30:12.151Z,10.70
2023-02-03T17:33:02.574Z,22.48
2023-02-03T17:36:10.223Z,14.70
2023-02-03T17:54:28.468Z,6.30
2023-02-03T17:57:14.056Z,7.13
2023-02-03T17:59:59.974Z,7.75
2023-02-03T18:02:52.022Z,5.90
2023-02-03T18:05:39.773Z,9.07
2023-02-03T18:08:31.190Z,7.25
2023-02-03T18:11:19.183Z,8.35
2023-02-03T18:14:08.364Z,7.47
2023-02-03T18:16:57.334Z,5.93
2023-02-03T18:19:46.721Z,9.88
2023-02-03T18:22:35.474Z,8.75
2023-02-03T18:25:21.641Z,7.32
2023-02-03T18:28:07.501Z,9.02
2023-02-03T18:31:05.884Z,8.68
2023-02-03T18:33:51.280Z,8.57
2023-02-03T18:36:36.933Z,8.93
2023-02-03T18:39:22.480Z,8.48
2023-02-03T18:42:08.053Z,10.60
2023-02-03T18:44:53.339Z,8.68
2023-02-03T18:47:39.240Z,6.32
2023-02-03T18:50:25.630Z,9.80
2023-02-03T18:53:11.396Z,8.32
2023-02-03T18:55:57.065Z,42.60
2023-02-03T18:58:42.889Z,11.52
2023-02-03T19:01:30.825Z,13.45
2023-02-03T19:04:16.717Z,10.70
2023-02-03T19:07:02.517Z,11.93
2023-02-03T19:09:48.373Z,11.35
2023-02-03T19:12:34.073Z,17.45
2023-02-03T19:15:19.997Z,10.65
2023-02-03T19:18:05.886Z,7.10
2023-02-03T19:20:51.696Z,7.70
2023-02-03T19:23:38.589Z,7.75
2023-02-03T19:26:24.724Z,5.57
2023-02-03T19:29:10.594Z,5.20
2023-02-03T19:31:56.399Z,8.85
2023-02-03T19:34:42.319Z,5.25
2023-02-03T19:37:27.972Z,5.88
2023-02-03T19:40:13.787Z,4.20
2023-02-03T19:43:05.229Z,6.30
2023-02-03T19:45:52.069Z,10.38
2023-02-03T19:48:38.471Z,4.97
2023-02-03T19:51:24.532Z,5.97
2023-02-03T19:54:15.372Z,4.05
2023-02-03T19:57:02.042Z,6.43
2023-02-03T19:59:48.323Z,12.07
2023-02-03T20:02:34.162Z,10.35
2023-02-03T20:05:19.964Z,8.07
2023-02-03T20:08:06.459Z,14.65
2023-02-03T20:10:52.481Z,8.70
2023-02-03T20:13:38.461Z,9.73
2023-02-03T20:16:24.245Z,4.80
2023-02-03T20:19:09.883Z,7.63
2023-02-03T20:21:55.772Z,6.32
2023-02-03T20:24:41.691Z,9.07
2023-02-03T20:27:28.367Z,6.53
2023-02-03T20:30:17.310Z,7.50
2023-02-03T20:33:04.820Z,4.95
2023-02-03T20:35:50.721Z,10.68
2023-02-03T20:38:36.946Z,5.13
2023-02-03T20:41:22.347Z,11.50
2023-02-03T20:44:12.215Z,7.80
2023-02-03T20:46:57.852Z,5.25
2023-02-03T20:49:44.002Z,6.60
2023-02-03T20:52:29.332Z,5.28
2023-02-03T20:55:18.417Z,7.70
2023-02-03T20:58:20.028Z,12.77
2023-02-03T21:01:32.113Z,12.43
2023-02-03T21:04:37.573Z,6.30
2023-02-03T21:07:24.093Z,12.50
2023-02-03T21:10:20.807Z,4.43
2023-02-03T21:13:26.481Z,6.32
2023-02-03T21:16:23.005Z,6.53
2023-02-03T21:19:15.232Z,8.38
2023-02-03T21:22:17.945Z,9.35
2023-02-03T21:27:52.507Z,5.63
2023-02-03T21:30:38.277Z,5.25
2023-02-03T21:33:41.309Z,11.57
2023-02-03T21:36:30.920Z,7.40
2023-02-03T21:39:33.020Z,10.18
2023-02-03T21:42:43.556Z,9.55
2023-02-03T21:45:41.229Z,10.50
2023-02-03T21:48:44.227Z,5.60
2023-02-03T21:51:35.472Z,7.32
2023-02-03T21:54:46.350Z,8.25
2023-02-03T21:57:43.902Z,4.78
2023-02-03T22:00:42.959Z,6.57
2023-02-03T22:03:35.494Z,4.13
2023-02-03T22:06:26.995Z,6.82
2023-02-03T22:09:18.532Z,4.57
2023-02-03T22:12:05.106Z,7.75
2023-02-03T22:14:50.788Z,7.45
2023-02-03T22:17:36.890Z,6.25
2023-02-03T22:20:22.526Z,6.75
2023-02-03T22:23:08.071Z,5.00
2023-02-03T22:25:53.811Z,5.43
2023-02-03T22:28:40.033Z,4.70
2023-02-03T22:31:25.413Z,4.80
2023-02-03T22:34:10.969Z,5.47
2023-02-03T22:36:56.671Z,5.63
2023-02-03T22:39:45.744Z,6.15
2023-02-03T22:42:31.498Z,7.75
2023-02-03T22:45:17.835Z,6.70
2023-02-03T22:48:04.467Z,3.55
2023-02-03T22:50:50.322Z,4.47
2023-02-03T22:53:36.032Z,6.38
2023-02-03T22:56:23.566Z,9.30
2023-02-03T22:59:09.381Z,4.95
2023-02-03T23:01:54.895Z,4.07
2023-02-03T23:04:40.371Z,5.63
2023-02-03T23:07:26.191Z,3.45
2023-02-03T23:10:17.151Z,4.38
2023-02-03T23:13:03.511Z,5.95
2023-02-03T23:15:49.622Z,4.22
2023-02-03T23:18:34.946Z,3.72
2023-02-03T23:21:20.472Z,4.53
2023-02-03T23:24:06.627Z,5.80
2023-02-03T23:26:51.924Z,3.65
2023-02-03T23:29:38.249Z,3.92
2023-02-03T23:32:23.759Z,3.67
2023-02-03T23:35:28.273Z,5.50
2023-02-03T23:38:15.479Z,5.18
2023-02-03T23:41:01.253Z,7.70
2023-02-03T23:43:46.572Z,9.07
2023-02-03T23:46:32.445Z,6.78
2023-02-03T23:49:18.036Z,4.72
2023-02-03T23:52:03.816Z,5.28
2023-02-03T23:54:49.407Z,7.03
2023-02-03T23:57:35.146Z,5.80
